createdAt,value
2023-03-02T00:01:27.558Z,2.10
2023-03-02T00:03:56.680Z,2.23
2023-03-02T00:06:23.958Z,1.77
2023-03-02T00:08:51.568Z,2.30
2023-03-02T00:11:21.698Z,2.70
2023-03-02T00:13:50.323Z,1.90
2023-03-02T00:16:17.548Z,2.50
2023-03-02T00:18:44.820Z,2.20
2023-03-02T00:21:11.919Z,2.73
2023-03-02T00:23:39.124Z,2.80
2023-03-02T00:26:07.989Z,2.20
2023-03-02T00:28:35.240Z,2.70
2023-03-02T00:31:04.899Z,2.97
2023-03-02T00:33:33.088Z,2.70
2023-03-02T00:36:00.593Z,2.90
2023-03-02T00:38:28.781Z,2.90
2023-03-02T00:40:56.612Z,2.70
2023-03-02T00:43:28.222Z,3.13
2023-03-02T00:45:55.553Z,3.13
2023-03-02T00:48:25.418Z,3.30
2023-03-02T00:50:52.552Z,3.70
2023-03-02T00:53:20.014Z,3.23
2023-03-02T00:55:54.719Z,3.13
2023-03-02T00:58:22.965Z,3.53
2023-03-02T01:00:51.399Z,3.50
2023-03-02T01:03:22.467Z,3.50
2023-03-02T01:08:17.055Z,3.03
2023-03-02T01:10:44.203Z,3.70
2023-03-02T01:13:11.658Z,3.57
2023-03-02T01:15:39.894Z,3.57
2023-03-02T01:18:07.264Z,3.67
2023-03-02T01:20:34.617Z,3.67
2023-03-02T01:23:01.688Z,4.10
2023-03-02T01:25:29.402Z,4.70
2023-03-02T01:27:56.612Z,4.30
2023-03-02T01:30:26.807Z,4.20
2023-03-02T01:32:53.986Z,4.35
2023-03-02T01:35:21.902Z,4.93
2023-03-02T01:37:49.097Z,5.40
2023-03-02T01:40:21.789Z,4.18
2023-03-02T01:42:52.519Z,4.25
2023-03-02T01:45:40.111Z,3.77
2023-03-02T01:48:09.750Z,4.47
2023-03-02T01:50:37.044Z,4.60
2023-03-02T01:53:05.418Z,4.60
2023-03-02T01:55:33.150Z,4.47
2023-03-02T01:58:00.301Z,4.83
2023-03-02T02:00:29.332Z,4.90
2023-03-02T02:03:08.840Z,5.00
2023-03-02T02:05:38.265Z,4.97
2023-03-02T02:08:06.209Z,4.45
2023-03-02T02:10:34.281Z,5.67
2023-03-02T02:13:02.001Z,5.10
2023-03-02T02:15:29.330Z,5.63
2023-03-02T02:17:56.466Z,5.37
2023-03-02T02:20:42.679Z,5.10
2023-03-02T02:23:26.997Z,5.20
2023-03-02T02:25:57.087Z,4.73
2023-03-02T02:28:36.386Z,4.90
2023-03-02T02:31:17.090Z,4.87
2023-03-02T02:33:46.194Z,6.03
2023-03-02T02:36:23.120Z,5.15
2023-03-02T02:38:54.819Z,4.73
2023-03-02T02:41:25.265Z,5.10
2023-03-02T02:43:53.031Z,4.82
2023-03-02T02:46:20.656Z,5.33
2023-03-02T02:48:47.942Z,5.40
2023-03-02T02:51:26.931Z,5.53
2023-03-02T02:54:00.119Z,5.60
2023-03-02T02:56:37.630Z,5.37
2023-03-02T02:59:24.281Z,5.60
2023-03-02T03:01:52.089Z,5.80
2023-03-02T03:04:22.493Z,4.97
2023-03-02T03:06:55.012Z,5.28
2023-03-02T03:09:22.617Z,5.93
2023-03-02T03:12:13.067Z,5.20
2023-03-02T03:14:41.329Z,5.00
2023-03-02T03:17:13.117Z,5.57
2023-03-02T03:19:53.634Z,5.25
2023-03-02T03:24:50.996Z,5.30
2023-03-02T03:27:20.838Z,5.30
2023-03-02T03:29:48.533Z,5.70
2023-03-02T03:32:18.107Z,5.83
2023-03-02T03:34:45.599Z,6.13
2023-03-02T03:37:28.763Z,5.87
2023-03-02T03:39:56.049Z,6.07
2023-03-02T03:42:24.271Z,6.00
2023-03-02T03:44:52.857Z,5.77
2023-03-02T03:47:21.658Z,6.43
2023-03-02T03:49:50.798Z,6.27
2023-03-02T03:52:18.145Z,5.87
2023-03-02T03:54:45.428Z,6.27
2023-03-02T03:57:12.702Z,5.67
2023-03-02T03:59:40.429Z,5.47
2023-03-02T04:02:08.436Z,6.13
2023-03-02T04:04:39.909Z,7.23
2023-03-02T04:07:12.281Z,5.80
2023-03-02T04:09:39.494Z,6.10
2023-03-02T04:12:09.037Z,6.63
2023-03-02T04:14:36.860Z,5.67
2023-03-02T04:17:05.611Z,6.03
2023-03-02T04:19:35.698Z,7.23
2023-03-02T04:22:04.387Z,6.23
2023-03-02T04:24:33.173Z,6.95
2023-03-02T04:27:04.025Z,6.15
2023-03-02T04:29:36.581Z,6.13
2023-03-02T04:32:06.231Z,6.80
2023-03-02T04:34:35.306Z,6.68
2023-03-02T04:37:02.590Z,6.17
2023-03-02T04:39:29.685Z,6.43
2023-03-02T04:41:57.227Z,6.67
2023-03-02T04:44:24.286Z,7.87
2023-03-02T04:46:54.448Z,6.67
2023-03-02T04:49:21.802Z,6.05
2023-03-02T04:51:51.896Z,7.67
2023-03-02T04:54:24.378Z,6.97
2023-03-02T04:56:52.084Z,7.27
2023-03-02T04:59:22.533Z,7.20
2023-03-02T05:04:19.988Z,6.95
2023-03-02T05:06:47.110Z,7.10
2023-03-02T05:09:14.391Z,6.93
2023-03-02T05:11:41.410Z,7.30
2023-03-02T05:14:09.794Z,7.07
2023-03-02T05:16:37.872Z,8.00
2023-03-02T05:19:05.979Z,7.37
2023-03-02T05:21:33.254Z,7.43
2023-03-02T05:24:00.651Z,6.73
2023-03-02T05:26:27.781Z,7.23
2023-03-02T05:28:55.132Z,7.07
2023-03-02T05:31:32.084Z,8.43
2023-03-02T05:33:59.423Z,7.40
2023-03-02T05:36:26.620Z,7.93
2023-03-02T05:38:53.797Z,7.77
2023-03-02T05:41:21.430Z,8.27
2023-03-02T05:43:48.602Z,7.77
2023-03-02T05:46:17.547Z,7.40
2023-03-02T05:48:45.501Z,7.97
2023-03-02T05:51:12.612Z,7.73
2023-03-02T05:53:40.312Z,7.87
2023-03-02T05:56:07.877Z,7.57
2023-03-02T05:58:35.142Z,6.73
2023-03-02T06:01:02.470Z,7.37
2023-03-02T06:03:29.857Z,8.23
2023-03-02T06:05:57.171Z,8.47
2023-03-02T06:08:24.401Z,8.60
2023-03-02T06:10:54.925Z,7.43
2023-03-02T06:15:49.100Z,6.40
2023-03-02T06:18:17.439Z,7.50
2023-03-02T06:20:45.168Z,8.20
2023-03-02T06:23:12.575Z,7.13
2023-03-02T06:25:43.725Z,8.83
2023-03-02T06:28:10.996Z,7.83
2023-03-02T06:30:38.222Z,7.70
2023-03-02T06:33:05.370Z,8.47
2023-03-02T06:35:33.844Z,8.60
2023-03-02T06:38:01.217Z,8.67
2023-03-02T06:40:28.279Z,8.80
2023-03-02T06:42:55.798Z,8.73
2023-03-02T06:45:26.136Z,9.30
2023-03-02T06:47:53.445Z,8.57
2023-03-02T06:50:23.149Z,9.30
2023-03-02T06:52:51.832Z,9.23
2023-03-02T06:55:18.859Z,8.93
2023-03-02T06:57:46.212Z,9.87
2023-03-02T07:00:17.192Z,9.40
2023-03-02T07:02:45.210Z,9.97
2023-03-02T07:05:12.594Z,8.87
2023-03-02T07:07:39.935Z,8.30
2023-03-02T07:10:07.725Z,9.37
2023-03-02T07:12:35.057Z,10.13
2023-03-02T07:15:02.171Z,9.33
2023-03-02T07:17:29.249Z,10.27
2023-03-02T07:19:56.616Z,9.47
2023-03-02T07:22:23.884Z,11.13
2023-03-02T07:24:54.269Z,10.40
2023-03-02T07:27:21.800Z,9.82
2023-03-02T07:29:49.005Z,10.63
2023-03-02T07:32:16.928Z,11.63
2023-03-02T07:34:44.292Z,11.00
2023-03-02T07:37:11.549Z,11.20
2023-03-02T07:39:47.384Z,10.93
2023-03-02T07:42:14.758Z,10.30
2023-03-02T07:47:12.260Z,11.83
2023-03-02T07:49:40.263Z,11.10
2023-03-02T07:52:07.600Z,11.00
2023-03-02T07:54:34.954Z,11.00
2023-03-02T07:57:28.718Z,10.70
2023-03-02T07:59:59.426Z,10.73
2023-03-02T08:02:27.078Z,11.73
2023-03-02T08:04:54.367Z,11.13
2023-03-02T08:07:21.951Z,12.10
2023-03-02T08:09:49.072Z,11.53
2023-03-02T08:12:16.833Z,12.73
2023-03-02T08:14:46.327Z,11.13
2023-03-02T08:17:13.497Z,11.17
2023-03-02T08:19:40.770Z,11.33
2023-03-02T08:22:07.901Z,11.40
2023-03-02T08:24:35.200Z,11.67
2023-03-02T08:27:03.092Z,12.97
2023-03-02T08:29:30.559Z,11.33
2023-03-02T08:31:59.278Z,11.93
2023-03-02T08:35:13.066Z,11.70
2023-03-02T08:42:23.520Z,11.87
2023-03-02T09:02:49.032Z,10.63
2023-03-02T09:14:42.714Z,11.90
2023-03-02T09:19:53.414Z,11.07
2023-03-02T09:23:37.426Z,12.87
2023-03-02T09:31:02.526Z,12.40
2023-03-02T09:35:50.286Z,12.30
2023-03-02T10:21:27.355Z,11.40
2023-03-02T11:41:28.218Z,10.10
2023-03-02T11:47:57.425Z,10.65
2023-03-02T12:27:33.943Z,9.80
2023-03-02T12:35:53.127Z,10.10
2023-03-02T12:40:02.653Z,9.45
2023-03-02T12:56:24.693Z,8.98
2023-03-02T12:59:04.823Z,9.73
2023-03-02T13:03:01.071Z,8.85
2023-03-02T13:05:46.168Z,8.10
2023-03-02T13:08:21.277Z,7.03
2023-03-02T13:11:12.087Z,8.13
2023-03-02T13:16:28.073Z,6.95
2023-03-02T13:19:20.712Z,7.80
2023-03-02T13:21:57.974Z,7.97
2023-03-02T13:24:47.018Z,8.57
2023-03-02T13:31:18.017Z,8.07
2023-03-02T13:34:01.260Z,7.70
2023-03-02T13:36:41.278Z,7.97
2023-03-02T13:39:42.126Z,7.18
2023-03-02T13:46:15.109Z,7.72
2023-03-02T13:49:26.340Z,6.63
2023-03-02T13:52:07.074Z,6.28
2023-03-02T13:54:40.123Z,5.90
2023-03-02T13:58:26.735Z,6.43
2023-03-02T14:00:53.305Z,6.50
2023-03-02T14:04:21.640Z,5.85
2023-03-02T14:33:44.759Z,5.57
2023-03-02T16:29:42.039Z,4.20
2023-03-02T16:32:42.931Z,4.20
2023-03-02T16:36:22.922Z,4.50
2023-03-02T16:52:23.238Z,4.53
2023-03-02T16:54:53.155Z,4.20
2023-03-02T16:57:23.279Z,4.57
2023-03-02T16:59:52.284Z,5.20
2023-03-02T17:02:21.674Z,3.97
2023-03-02T17:04:48.895Z,4.25
2023-03-02T17:07:17.456Z,3.72
2023-03-02T17:09:44.653Z,3.35
2023-03-02T17:12:11.927Z,4.55
2023-03-02T17:14:39.133Z,3.78
2023-03-02T17:17:06.382Z,3.75
2023-03-02T17:19:33.535Z,4.18
2023-03-02T17:22:01.938Z,3.80
2023-03-02T17:24:29.552Z,4.47
2023-03-02T17:26:56.888Z,3.80
2023-03-02T17:29:24.203Z,4.10
2023-03-02T17:31:52.168Z,4.40
2023-03-02T17:34:21.632Z,3.75
2023-03-02T17:36:48.882Z,4.10
2023-03-02T17:39:16.066Z,4.03
2023-03-02T17:41:43.284Z,4.03
2023-03-02T17:46:43.225Z,4.50
2023-03-02T17:49:10.485Z,4.53
2023-03-02T17:51:37.931Z,4.80
2023-03-02T17:54:07.290Z,5.13
2023-03-02T17:56:34.703Z,5.63
2023-03-02T17:59:02.643Z,5.57
2023-03-02T18:01:30.052Z,5.23
2023-03-02T18:03:57.437Z,5.47
2023-03-02T18:06:24.801Z,4.87
2023-03-02T18:08:52.178Z,4.50
2023-03-02T18:11:21.177Z,4.07
2023-03-02T18:13:48.592Z,4.00
2023-03-02T18:16:15.993Z,3.87
2023-03-02T18:18:43.184Z,3.47
2023-03-02T18:21:10.506Z,3.83
2023-03-02T18:23:37.595Z,3.47
2023-03-02T18:26:04.995Z,3.50
2023-03-02T18:28:32.311Z,3.60
2023-03-02T18:31:00.194Z,3.43
2023-03-02T18:33:27.415Z,3.27
2023-03-02T18:35:54.968Z,3.30
2023-03-02T18:38:22.261Z,3.27
2023-03-02T18:40:51.719Z,3.10
2023-03-02T18:43:18.850Z,3.10
2023-03-02T18:45:45.992Z,3.63
2023-03-02T18:48:15.889Z,3.37
2023-03-02T18:50:43.922Z,3.00
2023-03-02T18:53:12.859Z,3.40
2023-03-02T18:55:40.719Z,3.80
2023-03-02T18:58:09.456Z,3.60
2023-03-02T19:00:37.690Z,3.43
2023-03-02T19:03:05.040Z,3.77
2023-03-02T19:05:32.116Z,3.40
2023-03-02T19:08:00.357Z,3.60
2023-03-02T19:10:27.525Z,3.50
2023-03-02T19:12:57.008Z,3.53
2023-03-02T19:15:25.191Z,3.73
2023-03-02T19:17:53.196Z,3.50
2023-03-02T19:20:24.962Z,3.43
2023-03-02T19:22:52.579Z,3.23
2023-03-02T19:25:19.921Z,3.60
2023-03-02T19:27:46.968Z,3.77
2023-03-02T19:30:17.239Z,3.23
2023-03-02T19:32:44.499Z,3.70
2023-03-02T19:35:14.870Z,3.23
2023-03-02T19:37:42.082Z,3.47
2023-03-02T19:40:09.998Z,3.00
2023-03-02T19:42:39.493Z,3.10
2023-03-02T19:45:09.199Z,2.90
2023-03-02T19:47:36.398Z,2.95
2023-03-02T19:50:03.882Z,2.60
2023-03-02T19:52:31.574Z,2.40
2023-03-02T19:54:58.820Z,2.90
2023-03-02T19:57:26.040Z,2.70
2023-03-02T19:59:53.264Z,2.50
2023-03-02T20:02:21.052Z,2.70
2023-03-02T20:04:51.038Z,3.10
2023-03-02T20:07:22.542Z,2.92
2023-03-02T20:09:50.017Z,2.60
2023-03-02T20:12:17.221Z,2.90
2023-03-02T20:14:48.773Z,2.60
2023-03-02T20:17:16.679Z,2.90
2023-03-02T20:19:47.239Z,2.93
2023-03-02T20:24:41.726Z,2.87
2023-03-02T20:27:09.500Z,2.87
2023-03-02T20:29:41.167Z,3.07
2023-03-02T20:32:09.218Z,2.53
2023-03-02T20:34:37.392Z,2.63
2023-03-02T20:37:08.687Z,2.73
2023-03-02T20:39:59.642Z,2.63
2023-03-02T20:42:27.714Z,2.87
2023-03-02T20:44:56.547Z,2.47
2023-03-02T20:47:26.203Z,2.77
2023-03-02T20:49:54.092Z,2.63
2023-03-02T20:52:22.243Z,2.77
2023-03-02T20:54:50.151Z,2.90
2023-03-02T20:57:18.477Z,3.03
2023-03-02T20:59:46.490Z,3.20
2023-03-02T21:02:14.488Z,3.13
2023-03-02T21:04:42.801Z,3.07
2023-03-02T21:07:10.309Z,3.23
2023-03-02T21:09:37.623Z,3.47
2023-03-02T21:12:05.025Z,3.70
2023-03-02T21:14:33.399Z,4.10
2023-03-02T21:17:00.960Z,4.20
2023-03-02T21:19:31.396Z,3.67
2023-03-02T21:21:58.685Z,3.40
2023-03-02T21:24:25.950Z,3.30
2023-03-02T21:26:53.557Z,3.60
2023-03-02T21:29:22.704Z,3.57
2023-03-02T21:31:50.949Z,3.70
2023-03-02T21:34:19.292Z,3.30
2023-03-02T21:36:46.977Z,3.77
2023-03-02T21:39:16.627Z,3.57
2023-03-02T21:41:43.855Z,3.97
2023-03-02T21:44:11.413Z,3.80
2023-03-02T21:46:38.791Z,3.70
2023-03-02T21:49:06.152Z,4.13
2023-03-02T21:51:33.617Z,3.80
2023-03-02T21:54:01.058Z,3.20
2023-03-02T21:56:28.329Z,2.93
2023-03-02T21:58:56.288Z,3.80
2023-03-02T22:01:23.896Z,3.57
2023-03-02T22:03:54.539Z,3.20
2023-03-02T22:08:52.985Z,3.27
2023-03-02T22:11:24.926Z,3.23
2023-03-02T22:13:53.618Z,3.80
2023-03-02T22:16:22.344Z,3.03
2023-03-02T22:18:55.194Z,4.00
2023-03-02T22:21:25.410Z,3.20
2023-03-02T22:24:11.399Z,3.50
2023-03-02T22:27:17.300Z,3.47
2023-03-02T22:29:45.647Z,3.73
2023-03-02T22:32:25.706Z,3.60
2023-03-02T22:34:54.806Z,3.33
2023-03-02T22:37:23.217Z,3.93
2023-03-02T22:39:52.899Z,3.33
2023-03-02T22:42:25.146Z,3.00
2023-03-02T22:45:15.717Z,3.40
2023-03-02T22:50:29.074Z,3.30
2023-03-02T22:52:58.057Z,3.10
2023-03-02T22:55:36.857Z,3.43
2023-03-02T22:58:35.342Z,3.73
2023-03-02T23:01:02.762Z,3.40
2023-03-02T23:03:38.657Z,4.03
2023-03-02T23:06:38.720Z,3.67
2023-03-02T23:09:06.493Z,3.58
2023-03-02T23:11:38.281Z,3.77
2023-03-02T23:14:20.213Z,3.60
2023-03-02T23:16:52.732Z,3.50
2023-03-02T23:19:20.638Z,3.03
2023-03-02T23:21:48.566Z,3.97
2023-03-02T23:24:42.784Z,3.23
2023-03-02T23:27:10.689Z,3.50
2023-03-02T23:29:38.238Z,3.70
2023-03-02T23:32:05.821Z,3.53
2023-03-02T23:34:33.099Z,3.40
2023-03-02T23:37:00.826Z,3.13
2023-03-02T23:39:28.008Z,3.30
2023-03-02T23:41:55.180Z,2.97
2023-03-02T23:44:22.492Z,2.83
2023-03-02T23:46:50.053Z,2.80
2023-03-02T23:49:17.354Z,2.83
2023-03-02T23:51:44.758Z,2.77
2023-03-02T23:54:12.076Z,3.20
2023-03-02T23:56:39.416Z,2.90
2023-03-02T23:59:06.717Z,2.97
